sensor_id;sensor_type;location;lat;lon;timestamp;pressure;altitude;pressure_sealevel;temperature;humidity
23303;BME280;11820;48.738;9.092;2023-03-20T00:01:50;96469.78;;;11.11;nan
23303;BME280;11820;48.738;9.092;2023-03-20T00:04:16;96480.97;;;11.18;nan
23303;BME280;11820;48.738;9.092;2023-03-20T00:06:41;96478.91;;;11.07;nan
23303;BME280;11820;48.738;9.092;2023-03-20T00:09:06;96477.84;;;10.95;nan
23303;BME280;11820;48.738;9.092;2023-03-20T00:11:34;96479.63;;;10.95;nan
23303;BME280;11820;48.738;9.092;2023-03-20T00:14:12;96475.31;;;11.08;nan
23303;BME280;11820;48.738;9.092;2023-03-20T00:16:43;96473.50;;;11.02;nan
23303;BME280;11820;48.738;9.092;2023-03-20T00:19:17;96474.97;;;11.11;nan
23303;BME280;11820;48.738;9.092;2023-03-20T00:21:46;96474.56;;;10.80;nan
23303;BME280;11820;48.738;9.092;2023-03-20T00:24:12;96477.69;;;11.03;nan
23303;BME280;11820;48.738;9.092;2023-03-20T00:26:38;96482.03;;;10.96;nan
23303;BME280;11820;48.738;9.092;2023-03-20T00:29:04;96475.31;;;11.08;nan
23303;BME280;11820;48.738;9.092;2023-03-20T00:31:36;96472.50;;;11.03;nan
23303;BME280;11820;48.738;9.092;2023-03-20T00:34:10;96485.66;;;11.02;nan
23303;BME280;11820;48.738;9.092;2023-03-20T00:36:36;96486.06;;;11.05;nan
23303;BME280;11820;48.738;9.092;2023-03-20T00:39:01;96483.28;;;11.07;nan
23303;BME280;11820;48.738;9.092;2023-03-20T00:41:52;96488.63;;;11.05;nan
23303;BME280;11820;48.738;9.092;2023-03-20T00:44:54;96480.88;;;11.05;nan
23303;BME280;11820;48.738;9.092;2023-03-20T00:47:22;96478.69;;;11.02;nan
23303;BME280;11820;48.738;9.092;2023-03-20T00:49:50;96484.31;;;11.12;nan
23303;BME280;11820;48.738;9.092;2023-03-20T00:52:17;96479.50;;;11.03;nan
23303;BME280;11820;48.738;9.092;2023-03-20T00:54:43;96490.06;;;11.08;nan
23303;BME280;11820;48.738;9.092;2023-03-20T00:57:19;96477.41;;;10.85;nan
23303;BME280;11820;48.738;9.092;2023-03-20T01:02:25;96482.91;;;11.10;nan
23303;BME280;11820;48.738;9.092;2023-03-20T01:04:53;96486.66;;;11.07;nan
23303;BME280;11820;48.738;9.092;2023-03-20T01:07:18;96480.50;;;11.08;nan
23303;BME280;11820;48.738;9.092;2023-03-20T01:09:44;96481.91;;;11.11;nan
23303;BME280;11820;48.738;9.092;2023-03-20T01:12:11;96489.25;;;11.07;nan
23303;BME280;11820;48.738;9.092;2023-03-20T01:14:37;96490.00;;;11.01;nan
23303;BME280;11820;48.738;9.092;2023-03-20T01:17:02;96494.19;;;11.02;nan
23303;BME280;11820;48.738;9.092;2023-03-20T01:19:28;96491.00;;;11.00;nan
23303;BME280;11820;48.738;9.092;2023-03-20T01:21:53;96491.38;;;10.97;nan
23303;BME280;11820;48.738;9.092;2023-03-20T01:24:18;96487.50;;;10.80;nan
23303;BME280;11820;48.738;9.092;2023-03-20T01:26:45;96487.75;;;10.85;nan
23303;BME280;11820;48.738;9.092;2023-03-20T01:29:18;96484.72;;;10.82;nan
23303;BME280;11820;48.738;9.092;2023-03-20T01:31:43;96479.31;;;10.77;nan
23303;BME280;11820;48.738;9.092;2023-03-20T01:34:09;96488.34;;;10.87;nan
23303;BME280;11820;48.738;9.092;2023-03-20T01:36:36;96490.38;;;10.64;nan
23303;BME280;11820;48.738;9.092;2023-03-20T01:39:02;96492.44;;;10.75;nan
23303;BME280;11820;48.738;9.092;2023-03-20T01:41:28;96489.34;;;10.86;nan
23303;BME280;11820;48.738;9.092;2023-03-20T01:43:53;96490.69;;;10.82;nan
23303;BME280;11820;48.738;9.092;2023-03-20T01:46:23;96500.56;;;10.72;nan
23303;BME280;11820;48.738;9.092;2023-03-20T01:51:15;96493.94;;;10.63;nan
23303;BME280;11820;48.738;9.092;2023-03-20T01:53:42;96493.81;;;10.71;nan
23303;BME280;11820;48.738;9.092;2023-03-20T01:56:07;96499.81;;;10.78;nan
23303;BME280;11820;48.738;9.092;2023-03-20T01:58:35;96493.53;;;10.87;nan
23303;BME280;11820;48.738;9.092;2023-03-20T02:01:04;96493.47;;;10.81;nan
23303;BME280;11820;48.738;9.092;2023-03-20T02:03:31;96502.78;;;10.75;nan
23303;BME280;11820;48.738;9.092;2023-03-20T02:05:57;96512.00;;;10.57;nan
23303;BME280;11820;48.738;9.092;2023-03-20T02:08:27;96518.22;;;10.62;nan
23303;BME280;11820;48.738;9.092;2023-03-20T02:10:53;96510.84;;;10.38;nan
23303;BME280;11820;48.738;9.092;2023-03-20T02:13:20;96514.22;;;10.39;nan
23303;BME280;11820;48.738;9.092;2023-03-20T02:18:28;96510.41;;;10.56;nan
23303;BME280;11820;48.738;9.092;2023-03-20T02:21:10;96519.09;;;10.48;nan
23303;BME280;11820;48.738;9.092;2023-03-20T02:32:01;96520.81;;;10.62;nan
23303;BME280;11820;48.738;9.092;2023-03-20T02:42:49;96522.44;;;10.70;nan
23303;BME280;11820;48.738;9.092;2023-03-20T02:45:28;96524.94;;;10.57;nan
23303;BME280;11820;48.738;9.092;2023-03-20T02:48:09;96522.28;;;10.50;nan
23303;BME280;11820;48.738;9.092;2023-03-20T02:58:43;96518.38;;;10.61;nan
23303;BME280;11820;48.738;9.092;2023-03-20T03:01:17;96522.41;;;10.63;nan
23303;BME280;11820;48.738;9.092;2023-03-20T03:03:54;96524.00;;;10.64;nan
23303;BME280;11820;48.738;9.092;2023-03-20T03:06:27;96524.25;;;10.48;nan
23303;BME280;11820;48.738;9.092;2023-03-20T03:09:00;96534.72;;;10.40;nan
23303;BME280;11820;48.738;9.092;2023-03-20T03:11:29;96531.41;;;10.46;nan
23303;BME280;11820;48.738;9.092;2023-03-20T03:13:58;96530.97;;;10.43;nan
23303;BME280;11820;48.738;9.092;2023-03-20T03:16:27;96528.25;;;10.51;nan
23303;BME280;11820;48.738;9.092;2023-03-20T03:19:16;96529.53;;;10.61;nan
23303;BME280;11820;48.738;9.092;2023-03-20T03:21:45;96533.84;;;10.54;nan
23303;BME280;11820;48.738;9.092;2023-03-20T03:24:29;96535.72;;;10.60;nan
23303;BME280;11820;48.738;9.092;2023-03-20T03:26:57;96534.34;;;10.64;nan
23303;BME280;11820;48.738;9.092;2023-03-20T03:29:24;96535.19;;;10.50;nan
23303;BME280;11820;48.738;9.092;2023-03-20T03:31:52;96540.59;;;10.55;nan
23303;BME280;11820;48.738;9.092;2023-03-20T03:34:21;96542.22;;;10.56;nan
23303;BME280;11820;48.738;9.092;2023-03-20T03:37:04;96543.72;;;10.44;nan
23303;BME280;11820;48.738;9.092;2023-03-20T03:40:26;96536.19;;;10.49;nan
23303;BME280;11820;48.738;9.092;2023-03-20T03:42:52;96546.16;;;10.31;nan
23303;BME280;11820;48.738;9.092;2023-03-20T03:45:31;96545.72;;;10.07;nan
23303;BME280;11820;48.738;9.092;2023-03-20T03:48:14;96546.00;;;10.33;nan
23303;BME280;11820;48.738;9.092;2023-03-20T03:50:44;96554.66;;;10.46;nan
23303;BME280;11820;48.738;9.092;2023-03-20T03:53:15;96548.41;;;10.34;nan
23303;BME280;11820;48.738;9.092;2023-03-20T03:55:45;96551.47;;;10.23;nan
23303;BME280;11820;48.738;9.092;2023-03-20T04:00:52;96548.13;;;10.29;nan
23303;BME280;11820;48.738;9.092;2023-03-20T04:03:20;96552.59;;;10.35;nan
23303;BME280;11820;48.738;9.092;2023-03-20T04:05:48;96554.84;;;10.45;nan
23303;BME280;11820;48.738;9.092;2023-03-20T04:08:15;96558.47;;;10.29;nan
23303;BME280;11820;48.738;9.092;2023-03-20T04:10:41;96561.56;;;10.39;nan
23303;BME280;11820;48.738;9.092;2023-03-20T04:13:06;96556.81;;;10.43;nan
23303;BME280;11820;48.738;9.092;2023-03-20T04:15:32;96567.72;;;10.38;nan
23303;BME280;11820;48.738;9.092;2023-03-20T04:17:57;96566.28;;;10.36;nan
23303;BME280;11820;48.738;9.092;2023-03-20T04:20:22;96562.28;;;10.33;nan
23303;BME280;11820;48.738;9.092;2023-03-20T04:22:48;96561.81;;;10.44;nan
23303;BME280;11820;48.738;9.092;2023-03-20T04:25:17;96563.53;;;10.37;nan
23303;BME280;11820;48.738;9.092;2023-03-20T04:27:42;96560.38;;;10.42;nan
23303;BME280;11820;48.738;9.092;2023-03-20T04:30:09;96553.19;;;10.37;nan
23303;BME280;11820;48.738;9.092;2023-03-20T04:32:34;96548.88;;;10.44;nan
23303;BME280;11820;48.738;9.092;2023-03-20T04:35:00;96539.28;;;10.38;nan
23303;BME280;11820;48.738;9.092;2023-03-20T04:37:25;96543.41;;;10.33;nan
23303;BME280;11820;48.738;9.092;2023-03-20T04:39:50;96543.91;;;10.22;nan
23303;BME280;11820;48.738;9.092;2023-03-20T04:42:15;96538.66;;;10.15;nan
23303;BME280;11820;48.738;9.092;2023-03-20T04:44:41;96535.94;;;10.23;nan
23303;BME280;11820;48.738;9.092;2023-03-20T04:47:06;96541.88;;;10.17;nan
23303;BME280;11820;48.738;9.092;2023-03-20T04:49:31;96549.31;;;10.27;nan
23303;BME280;11820;48.738;9.092;2023-03-20T04:51:57;96545.31;;;10.24;nan
23303;BME280;11820;48.738;9.092;2023-03-20T04:54:22;96542.47;;;10.19;nan
23303;BME280;11820;48.738;9.092;2023-03-20T04:56:47;96551.31;;;10.31;nan
23303;BME280;11820;48.738;9.092;2023-03-20T04:59:13;96558.22;;;10.24;nan
23303;BME280;11820;48.738;9.092;2023-03-20T05:01:38;96554.78;;;10.17;nan
23303;BME280;11820;48.738;9.092;2023-03-20T05:04:03;96561.00;;;10.23;nan
23303;BME280;11820;48.738;9.092;2023-03-20T05:06:30;96566.94;;;10.02;nan
23303;BME280;11820;48.738;9.092;2023-03-20T05:08:58;96558.53;;;10.15;nan
23303;BME280;11820;48.738;9.092;2023-03-20T05:11:25;96569.44;;;10.10;nan
23303;BME280;11820;48.738;9.092;2023-03-20T05:13:51;96572.44;;;9.99;nan
23303;BME280;11820;48.738;9.092;2023-03-20T05:16:16;96578.88;;;10.03;nan
23303;BME280;11820;48.738;9.092;2023-03-20T05:18:42;96583.25;;;9.88;nan
23303;BME280;11820;48.738;9.092;2023-03-20T05:21:07;96587.44;;;9.89;nan
23303;BME280;11820;48.738;9.092;2023-03-20T05:23:33;96585.84;;;9.74;nan
23303;BME280;11820;48.738;9.092;2023-03-20T05:25:58;96588.22;;;9.90;nan
23303;BME280;11820;48.738;9.092;2023-03-20T05:28:24;96590.00;;;9.89;nan
23303;BME280;11820;48.738;9.092;2023-03-20T05:30:49;96583.03;;;10.04;nan
23303;BME280;11820;48.738;9.092;2023-03-20T05:33:14;96581.59;;;10.16;nan
23303;BME280;11820;48.738;9.092;2023-03-20T05:35:40;96574.28;;;10.20;nan
23303;BME280;11820;48.738;9.092;2023-03-20T05:38:05;96573.47;;;10.19;nan
23303;BME280;11820;48.738;9.092;2023-03-20T05:40:31;96567.56;;;10.25;nan
23303;BME280;11820;48.738;9.092;2023-03-20T05:42:56;96570.69;;;10.35;nan
23303;BME280;11820;48.738;9.092;2023-03-20T05:45:21;96576.19;;;10.32;nan
23303;BME280;11820;48.738;9.092;2023-03-20T05:47:47;96580.75;;;10.30;nan
23303;BME280;11820;48.738;9.092;2023-03-20T05:50:12;96586.53;;;10.32;nan
23303;BME280;11820;48.738;9.092;2023-03-20T05:52:38;96586.53;;;10.32;nan
23303;BME280;11820;48.738;9.092;2023-03-20T05:55:04;96593.59;;;10.45;nan
23303;BME280;11820;48.738;9.092;2023-03-20T05:57:30;96585.81;;;10.38;nan
23303;BME280;11820;48.738;9.092;2023-03-20T05:59:55;96597.50;;;10.34;nan
23303;BME280;11820;48.738;9.092;2023-03-20T06:02:21;96602.00;;;10.26;nan
23303;BME280;11820;48.738;9.092;2023-03-20T06:04:46;96603.78;;;10.46;nan
23303;BME280;11820;48.738;9.092;2023-03-20T06:07:11;96609.56;;;10.48;nan
23303;BME280;11820;48.738;9.092;2023-03-20T06:09:38;96612.63;;;10.58;nan
23303;BME280;11820;48.738;9.092;2023-03-20T06:12:03;96614.06;;;10.61;nan
23303;BME280;11820;48.738;9.092;2023-03-20T06:14:28;96605.16;;;10.63;nan
23303;BME280;11820;48.738;9.092;2023-03-20T06:16:54;96607.78;;;10.70;nan
23303;BME280;11820;48.738;9.092;2023-03-20T06:19:21;96612.28;;;10.61;nan
23303;BME280;11820;48.738;9.092;2023-03-20T06:21:47;96608.38;;;10.72;nan
23303;BME280;11820;48.738;9.092;2023-03-20T06:24:12;96608.72;;;10.62;nan
23303;BME280;11820;48.738;9.092;2023-03-20T06:26:38;96610.69;;;10.60;nan
23303;BME280;11820;48.738;9.092;2023-03-20T06:29:03;96606.91;;;10.63;nan
23303;BME280;11820;48.738;9.092;2023-03-20T06:31:28;96599.09;;;10.56;nan
23303;BME280;11820;48.738;9.092;2023-03-20T06:33:54;96606.44;;;10.53;nan
23303;BME280;11820;48.738;9.092;2023-03-20T06:36:19;96600.34;;;10.60;nan
23303;BME280;11820;48.738;9.092;2023-03-20T06:38:45;96605.81;;;10.51;nan
23303;BME280;11820;48.738;9.092;2023-03-20T06:41:10;96597.50;;;10.55;nan
23303;BME280;11820;48.738;9.092;2023-03-20T06:43:35;96602.44;;;10.71;nan
23303;BME280;11820;48.738;9.092;2023-03-20T06:46:01;96597.38;;;10.63;nan
23303;BME280;11820;48.738;9.092;2023-03-20T06:48:26;96603.97;;;10.66;nan
23303;BME280;11820;48.738;9.092;2023-03-20T06:50:52;96601.31;;;10.80;nan
23303;BME280;11820;48.738;9.092;2023-03-20T06:53:18;96611.72;;;10.87;nan
23303;BME280;11820;48.738;9.092;2023-03-20T06:55:48;96607.81;;;10.97;nan
23303;BME280;11820;48.738;9.092;2023-03-20T06:58:13;96603.88;;;11.01;nan
23303;BME280;11820;48.738;9.092;2023-03-20T07:00:38;96600.41;;;11.15;nan
23303;BME280;11820;48.738;9.092;2023-03-20T07:03:04;96607.00;;;10.97;nan
23303;BME280;11820;48.738;9.092;2023-03-20T07:05:29;96606.31;;;11.09;nan
23303;BME280;11820;48.738;9.092;2023-03-20T07:07:55;96617.47;;;11.10;nan
23303;BME280;11820;48.738;9.092;2023-03-20T07:10:20;96617.31;;;11.11;nan
23303;BME280;11820;48.738;9.092;2023-03-20T07:12:45;96623.94;;;11.20;nan
23303;BME280;11820;48.738;9.092;2023-03-20T07:15:11;96623.69;;;11.15;nan
23303;BME280;11820;48.738;9.092;2023-03-20T07:17:36;96631.19;;;10.83;nan
23303;BME280;11820;48.738;9.092;2023-03-20T07:20:03;96635.28;;;10.98;nan
23303;BME280;11820;48.738;9.092;2023-03-20T07:22:29;96633.44;;;11.13;nan
23303;BME280;11820;48.738;9.092;2023-03-20T07:24:56;96639.03;;;10.96;nan
23303;BME280;11820;48.738;9.092;2023-03-20T07:27:22;96642.53;;;11.09;nan
23303;BME280;11820;48.738;9.092;2023-03-20T07:29:47;96644.97;;;11.11;nan
23303;BME280;11820;48.738;9.092;2023-03-20T07:32:13;96654.50;;;11.10;nan
23303;BME280;11820;48.738;9.092;2023-03-20T07:34:38;96649.47;;;11.02;nan
23303;BME280;11820;48.738;9.092;2023-03-20T07:37:03;96634.59;;;11.11;nan
23303;BME280;11820;48.738;9.092;2023-03-20T07:39:29;96639.91;;;11.24;nan
23303;BME280;11820;48.738;9.092;2023-03-20T07:41:54;96639.22;;;11.15;nan
23303;BME280;11820;48.738;9.092;2023-03-20T07:44:20;96630.47;;;11.16;nan
23303;BME280;11820;48.738;9.092;2023-03-20T07:46:45;96635.50;;;11.24;nan
23303;BME280;11820;48.738;9.092;2023-03-20T07:49:15;96631.75;;;11.27;nan
23303;BME280;11820;48.738;9.092;2023-03-20T07:51:43;96623.28;;;11.39;nan
23303;BME280;11820;48.738;9.092;2023-03-20T07:54:08;96636.28;;;11.52;nan
23303;BME280;11820;48.738;9.092;2023-03-20T07:56:34;96635.03;;;11.69;nan
23303;BME280;11820;48.738;9.092;2023-03-20T07:58:59;96635.25;;;11.74;nan
23303;BME280;11820;48.738;9.092;2023-03-20T08:01:24;96633.66;;;11.73;nan
23303;BME280;11820;48.738;9.092;2023-03-20T08:03:50;96640.72;;;11.58;nan
23303;BME280;11820;48.738;9.092;2023-03-20T08:06:15;96637.84;;;11.74;nan
23303;BME280;11820;48.738;9.092;2023-03-20T08:08:40;96636.25;;;11.73;nan
23303;BME280;11820;48.738;9.092;2023-03-20T08:11:06;96628.88;;;11.70;nan
23303;BME280;11820;48.738;9.092;2023-03-20T08:13:31;96636.41;;;11.65;nan
23303;BME280;11820;48.738;9.092;2023-03-20T08:15:56;96636.53;;;11.84;nan
23303;BME280;11820;48.738;9.092;2023-03-20T08:18:22;96631.84;;;11.67;nan
23303;BME280;11820;48.738;9.092;2023-03-20T08:20:48;96639.09;;;11.50;nan
23303;BME280;11820;48.738;9.092;2023-03-20T08:23:17;96640.78;;;11.37;nan
23303;BME280;11820;48.738;9.092;2023-03-20T08:25:50;96643.03;;;11.74;nan
23303;BME280;11820;48.738;9.092;2023-03-20T08:28:16;96651.97;;;11.65;nan
23303;BME280;11820;48.738;9.092;2023-03-20T08:30:42;96650.84;;;11.53;nan
23303;BME280;11820;48.738;9.092;2023-03-20T08:33:07;96654.13;;;11.61;nan
23303;BME280;11820;48.738;9.092;2023-03-20T08:35:33;96652.81;;;11.51;nan
23303;BME280;11820;48.738;9.092;2023-03-20T08:37:58;96643.47;;;11.77;nan
23303;BME280;11820;48.738;9.092;2023-03-20T08:40:23;96643.91;;;11.87;nan
23303;BME280;11820;48.738;9.092;2023-03-20T08:42:49;96645.06;;;11.85;nan
23303;BME280;11820;48.738;9.092;2023-03-20T08:45:14;96655.00;;;11.75;nan
23303;BME280;11820;48.738;9.092;2023-03-20T08:47:40;96648.34;;;11.59;nan
23303;BME280;11820;48.738;9.092;2023-03-20T08:50:06;96640.31;;;11.88;nan
23303;BME280;11820;48.738;9.092;2023-03-20T08:52:32;96645.94;;;11.92;nan
23303;BME280;11820;48.738;9.092;2023-03-20T08:54:57;96642.34;;;11.93;nan
23303;BME280;11820;48.738;9.092;2023-03-20T08:57:23;96647.66;;;11.85;nan
23303;BME280;11820;48.738;9.092;2023-03-20T08:59:48;96646.78;;;12.12;nan
23303;BME280;11820;48.738;9.092;2023-03-20T09:02:14;96641.59;;;12.05;nan
23303;BME280;11820;48.738;9.092;2023-03-20T09:04:39;96636.47;;;12.18;nan
23303;BME280;11820;48.738;9.092;2023-03-20T09:07:05;96646.69;;;12.33;nan
23303;BME280;11820;48.738;9.092;2023-03-20T09:09:31;96644.94;;;12.40;nan
23303;BME280;11820;48.738;9.092;2023-03-20T09:11:58;96642.78;;;12.63;nan
23303;BME280;11820;48.738;9.092;2023-03-20T09:14:25;96654.53;;;12.59;nan
23303;BME280;11820;48.738;9.092;2023-03-20T09:16:50;96652.16;;;12.57;nan
23303;BME280;11820;48.738;9.092;2023-03-20T09:19:17;96650.34;;;12.51;nan
23303;BME280;11820;48.738;9.092;2023-03-20T09:21:42;96657.28;;;12.44;nan
23303;BME280;11820;48.738;9.092;2023-03-20T09:24:08;96657.31;;;12.51;nan
23303;BME280;11820;48.738;9.092;2023-03-20T09:26:33;96658.91;;;12.52;nan
23303;BME280;11820;48.738;9.092;2023-03-20T09:28:58;96660.78;;;12.71;nan
23303;BME280;11820;48.738;9.092;2023-03-20T09:31:24;96665.81;;;12.92;nan
23303;BME280;11820;48.738;9.092;2023-03-20T09:33:50;96659.59;;;12.86;nan
23303;BME280;11820;48.738;9.092;2023-03-20T09:36:15;96654.59;;;12.85;nan
23303;BME280;11820;48.738;9.092;2023-03-20T09:38:41;96655.34;;;12.59;nan
23303;BME280;11820;48.738;9.092;2023-03-20T09:41:13;96653.19;;;12.88;nan
23303;BME280;11820;48.738;9.092;2023-03-20T09:55:05;96653.84;;;13.03;nan
23303;BME280;11820;48.738;9.092;2023-03-20T09:57:45;96659.47;;;13.26;nan
23303;BME280;11820;48.738;9.092;2023-03-20T10:00:16;96654.66;;;13.17;nan
23303;BME280;11820;48.738;9.092;2023-03-20T10:02:52;96659.06;;;13.36;nan
23303;BME280;11820;48.738;9.092;2023-03-20T10:05:22;96660.06;;;13.15;nan
23303;BME280;11820;48.738;9.092;2023-03-20T10:07:49;96665.47;;;13.20;nan
23303;BME280;11820;48.738;9.092;2023-03-20T10:10:15;96661.44;;;13.50;nan
23303;BME280;11820;48.738;9.092;2023-03-20T10:18:19;96663.03;;;13.45;nan
23303;BME280;11820;48.738;9.092;2023-03-20T10:20:54;96666.97;;;12.83;nan
23303;BME280;11820;48.738;9.092;2023-03-20T10:25:50;96660.78;;;12.77;nan
23303;BME280;11820;48.738;9.092;2023-03-20T10:31:30;96665.75;;;12.66;nan
23303;BME280;11820;48.738;9.092;2023-03-20T10:39:42;96675.59;;;12.30;nan
23303;BME280;11820;48.738;9.092;2023-03-20T10:42:18;96671.03;;;12.32;nan
23303;BME280;11820;48.738;9.092;2023-03-20T10:44:49;96666.88;;;12.44;nan
23303;BME280;11820;48.738;9.092;2023-03-20T10:47:19;96666.94;;;12.63;nan
23303;BME280;11820;48.738;9.092;2023-03-20T10:49:56;96662.16;;;12.67;nan
23303;BME280;11820;48.738;9.092;2023-03-20T10:52:25;96649.78;;;12.75;nan
23303;BME280;11820;48.738;9.092;2023-03-20T10:54:58;96647.81;;;12.71;nan
23303;BME280;11820;48.738;9.092;2023-03-20T10:57:27;96651.78;;;12.67;nan
23303;BME280;11820;48.738;9.092;2023-03-20T10:59:56;96647.81;;;12.77;nan
23303;BME280;11820;48.738;9.092;2023-03-20T11:02:27;96648.81;;;12.83;nan
23303;BME280;11820;48.738;9.092;2023-03-20T11:04:53;96640.22;;;12.76;nan
23303;BME280;11820;48.738;9.092;2023-03-20T11:07:23;96644.16;;;12.52;nan
23303;BME280;11820;48.738;9.092;2023-03-20T11:10:12;96649.16;;;12.54;nan
23303;BME280;11820;48.738;9.092;2023-03-20T11:12:41;96648.53;;;12.45;nan
23303;BME280;11820;48.738;9.092;2023-03-20T11:18:02;96646.59;;;12.67;nan
23303;BME280;11820;48.738;9.092;2023-03-20T11:20:39;96647.81;;;12.71;nan
23303;BME280;11820;48.738;9.092;2023-03-20T11:23:15;96650.19;;;12.66;nan
23303;BME280;11820;48.738;9.092;2023-03-20T11:25:56;96650.59;;;12.88;nan
23303;BME280;11820;48.738;9.092;2023-03-20T11:28:37;96649.25;;;13.25;nan
23303;BME280;11820;48.738;9.092;2023-03-20T11:33:39;96654.84;;;13.22;nan
23303;BME280;11820;48.738;9.092;2023-03-20T11:36:27;96653.25;;;13.53;nan
23303;BME280;11820;48.738;9.092;2023-03-20T11:39:12;96647.06;;;13.48;nan
23303;BME280;11820;48.738;9.092;2023-03-20T11:41:46;96641.28;;;13.33;nan
23303;BME280;11820;48.738;9.092;2023-03-20T11:49:33;96645.41;;;12.88;nan
23303;BME280;11820;48.738;9.092;2023-03-20T11:52:14;96651.38;;;12.70;nan
23303;BME280;11820;48.738;9.092;2023-03-20T11:54:46;96642.22;;;12.74;nan
23303;BME280;11820;48.738;9.092;2023-03-20T11:57:39;96642.22;;;12.74;nan
23303;BME280;11820;48.738;9.092;2023-03-20T12:00:19;96636.50;;;12.98;nan
23303;BME280;11820;48.738;9.092;2023-03-20T12:02:45;96634.91;;;13.22;nan
23303;BME280;11820;48.738;9.092;2023-03-20T12:05:36;96637.84;;;13.52;nan
23303;BME280;11820;48.738;9.092;2023-03-20T12:08:22;96644.44;;;13.67;nan
23303;BME280;11820;48.738;9.092;2023-03-20T12:11:04;96641.38;;;13.96;nan
23303;BME280;11820;48.738;9.092;2023-03-20T12:13:36;96633.59;;;13.90;nan
23303;BME280;11820;48.738;9.092;2023-03-20T12:16:10;96637.66;;;13.53;nan
23303;BME280;11820;48.738;9.092;2023-03-20T12:18:44;96629.22;;;13.64;nan
23303;BME280;11820;48.738;9.092;2023-03-20T12:21:22;96630.66;;;13.60;nan
23303;BME280;11820;48.738;9.092;2023-03-20T12:26:59;96621.69;;;13.37;nan
23303;BME280;11820;48.738;9.092;2023-03-20T12:29:26;96622.66;;;13.55;nan
23303;BME280;11820;48.738;9.092;2023-03-20T12:34:34;96616.59;;;13.87;nan
23303;BME280;11820;48.738;9.092;2023-03-20T12:37:02;96613.63;;;13.64;nan
23303;BME280;11820;48.738;9.092;2023-03-20T12:39:32;96611.47;;;13.55;nan
23303;BME280;11820;48.738;9.092;2023-03-20T12:45:11;96604.72;;;13.28;nan
23303;BME280;11820;48.738;9.092;2023-03-20T12:47:47;96606.13;;;13.30;nan
23303;BME280;11820;48.738;9.092;2023-03-20T12:50:35;96611.50;;;13.48;nan
23303;BME280;11820;48.738;9.092;2023-03-20T12:53:21;96607.91;;;13.36;nan
23303;BME280;11820;48.738;9.092;2023-03-20T12:56:11;96601.53;;;13.19;nan
23303;BME280;11820;48.738;9.092;2023-03-20T13:01:41;96606.28;;;12.84;nan
23303;BME280;11820;48.738;9.092;2023-03-20T13:07:18;96600.09;;;12.65;nan
23303;BME280;11820;48.738;9.092;2023-03-20T13:09:53;96595.09;;;12.64;nan
23303;BME280;11820;48.738;9.092;2023-03-20T13:13:02;96598.69;;;12.76;nan
23303;BME280;11820;48.738;9.092;2023-03-20T13:15:55;96596.09;;;12.76;nan
23303;BME280;11820;48.738;9.092;2023-03-20T13:19:10;96597.50;;;12.72;nan
23303;BME280;11820;48.738;9.092;2023-03-20T13:24:40;96591.31;;;12.73;nan
23303;BME280;11820;48.738;9.092;2023-03-20T13:27:41;96582.34;;;13.07;nan
23303;BME280;11820;48.738;9.092;2023-03-20T13:36:27;96577.41;;;13.82;nan
23303;BME280;11820;48.738;9.092;2023-03-20T13:39:04;96568.38;;;14.66;nan
23303;BME280;11820;48.738;9.092;2023-03-20T13:41:35;96564.06;;;15.51;nan
23303;BME280;11820;48.738;9.092;2023-03-20T13:44:02;96550.94;;;16.59;nan
23303;BME280;11820;48.738;9.092;2023-03-20T13:49:04;96548.34;;;15.94;nan
23303;BME280;11820;48.738;9.092;2023-03-20T13:51:42;96547.50;;;15.64;nan
23303;BME280;11820;48.738;9.092;2023-03-20T13:54:30;96539.84;;;15.51;nan
23303;BME280;11820;48.738;9.092;2023-03-20T13:57:08;96531.16;;;15.14;nan
23303;BME280;11820;48.738;9.092;2023-03-20T14:05:13;96534.28;;;15.23;nan
23303;BME280;11820;48.738;9.092;2023-03-20T14:07:46;96531.56;;;15.36;nan
23303;BME280;11820;48.738;9.092;2023-03-20T14:12:52;96533.38;;;15.53;nan
23303;BME280;11820;48.738;9.092;2023-03-20T14:15:19;96532.25;;;15.25;nan
23303;BME280;11820;48.738;9.092;2023-03-20T14:17:47;96536.53;;;14.70;nan
23303;BME280;11820;48.738;9.092;2023-03-20T14:20:28;96536.13;;;14.67;nan
23303;BME280;11820;48.738;9.092;2023-03-20T14:22:56;96533.84;;;14.53;nan
23303;BME280;11820;48.738;9.092;2023-03-20T14:25:22;96527.81;;;14.59;nan
23303;BME280;11820;48.738;9.092;2023-03-20T14:27:57;96526.72;;;14.42;nan
23303;BME280;11820;48.738;9.092;2023-03-20T14:33:45;96535.28;;;14.18;nan
23303;BME280;11820;48.738;9.092;2023-03-20T14:35:51;96524.00;;;14.30;nan
23303;BME280;11820;48.738;9.092;2023-03-20T14:38:58;96528.06;;;14.13;nan
23303;BME280;11820;48.738;9.092;2023-03-20T14:44:12;96538.41;;;14.33;nan
23303;BME280;11820;48.738;9.092;2023-03-20T14:49:49;96532.09;;;14.09;nan
23303;BME280;11820;48.738;9.092;2023-03-20T14:55:32;96540.53;;;14.05;nan
23303;BME280;11820;48.738;9.092;2023-03-20T14:58:02;96535.41;;;13.85;nan
23303;BME280;11820;48.738;9.092;2023-03-20T15:00:33;96538.41;;;13.82;nan
23303;BME280;11820;48.738;9.092;2023-03-20T15:03:09;96537.63;;;13.82;nan
23303;BME280;11820;48.738;9.092;2023-03-20T15:05:37;96532.97;;;13.90;nan
23303;BME280;11820;48.738;9.092;2023-03-20T15:08:09;96534.19;;;13.94;nan
23303;BME280;11820;48.738;9.092;2023-03-20T15:10:43;96525.44;;;13.76;nan
23303;BME280;11820;48.738;9.092;2023-03-20T15:13:12;96526.94;;;13.52;nan
23303;BME280;11820;48.738;9.092;2023-03-20T15:15:51;96529.13;;;13.55;nan
23303;BME280;11820;48.738;9.092;2023-03-20T15:18:16;96528.53;;;13.53;nan
23303;BME280;11820;48.738;9.092;2023-03-20T15:20:43;96529.28;;;13.67;nan
23303;BME280;11820;48.738;9.092;2023-03-20T15:23:09;96523.34;;;13.53;nan
23303;BME280;11820;48.738;9.092;2023-03-20T15:25:37;96534.38;;;13.36;nan
23303;BME280;11820;48.738;9.092;2023-03-20T15:28:07;96532.38;;;13.25;nan
23303;BME280;11820;48.738;9.092;2023-03-20T15:30:36;96531.59;;;13.31;nan
23303;BME280;11820;48.738;9.092;2023-03-20T15:33:02;96525.81;;;13.22;nan
23303;BME280;11820;48.738;9.092;2023-03-20T15:35:28;96529.38;;;13.34;nan
23303;BME280;11820;48.738;9.092;2023-03-20T15:37:56;96532.78;;;13.28;nan